sensor_id;sensor_type;location;lat;lon;timestamp;pressure;altitude;pressure_sealevel;temperature;humidity
62524;BME280;53689;56.878;60.672;2023-07-20T00:01:08;96360.63;;;25.17;47.67
62524;BME280;53689;56.878;60.672;2023-07-20T00:03:54;96351.75;;;24.58;49.24
62524;BME280;53689;56.878;60.672;2023-07-20T00:06:23;96358.06;;;24.25;49.96
62524;BME280;53689;56.878;60.672;2023-07-20T00:08:51;96362.81;;;24.08;50.03
62524;BME280;53689;56.878;60.672;2023-07-20T00:11:18;96355.28;;;24.10;50.32
62524;BME280;53689;56.878;60.672;2023-07-20T00:13:46;96357.66;;;24.55;49.36
62524;BME280;53689;56.878;60.672;2023-07-20T00:16:14;96353.19;;;24.22;49.82
62524;BME280;53689;56.878;60.672;2023-07-20T00:18:42;96361.38;;;24.00;50.20
62524;BME280;53689;56.878;60.672;2023-07-20T00:21:11;96359.75;;;23.99;50.73
62524;BME280;53689;56.878;60.672;2023-07-20T00:23:39;96356.22;;;23.93;50.63
62524;BME280;53689;56.878;60.672;2023-07-20T00:26:07;96355.97;;;24.00;50.13
62524;BME280;53689;56.878;60.672;2023-07-20T00:28:34;96361.09;;;24.34;49.59
62524;BME280;53689;56.878;60.672;2023-07-20T00:31:02;96356.63;;;24.13;52.18
62524;BME280;53689;56.878;60.672;2023-07-20T00:33:30;96357.59;;;23.96;50.56
62524;BME280;53689;56.878;60.672;2023-07-20T00:35:58;96357.25;;;23.87;50.46
62524;BME280;53689;56.878;60.672;2023-07-20T00:38:27;96351.84;;;23.87;50.86
62524;BME280;53689;56.878;60.672;2023-07-20T00:40:55;96347.22;;;23.82;51.21
62524;BME280;53689;56.878;60.672;2023-07-20T00:43:23;96347.72;;;24.17;49.63
62524;BME280;53689;56.878;60.672;2023-07-20T00:45:50;96351.69;;;24.04;50.26
62524;BME280;53689;56.878;60.672;2023-07-20T00:48:18;96354.09;;;24.01;50.39
62524;BME280;53689;56.878;60.672;2023-07-20T00:50:47;96358.00;;;24.15;50.30
62524;BME280;53689;56.878;60.672;2023-07-20T00:53:15;96365.09;;;24.27;49.29
62524;BME280;53689;56.878;60.672;2023-07-20T00:55:45;96362.81;;;24.61;49.23
62524;BME280;53689;56.878;60.672;2023-07-20T00:58:13;96362.53;;;25.21;47.50
62524;BME280;53689;56.878;60.672;2023-07-20T01:00:40;96368.50;;;25.29;46.88
62524;BME280;53689;56.878;60.672;2023-07-20T01:03:08;96358.09;;;24.31;49.16
62524;BME280;53689;56.878;60.672;2023-07-20T01:05:42;96358.22;;;24.08;49.92
62524;BME280;53689;56.878;60.672;2023-07-20T01:08:17;96366.09;;;24.10;50.22
62524;BME280;53689;56.878;60.672;2023-07-20T01:10:55;96353.91;;;24.61;49.20
62524;BME280;53689;56.878;60.672;2023-07-20T01:13:25;96360.75;;;24.20;50.24
62524;BME280;53689;56.878;60.672;2023-07-20T01:15:56;96360.44;;;24.17;49.79
62524;BME280;53689;56.878;60.672;2023-07-20T01:18:25;96361.22;;;24.12;49.67
62524;BME280;53689;56.878;60.672;2023-07-20T01:20:53;96360.22;;;24.23;50.07
62524;BME280;53689;56.878;60.672;2023-07-20T01:29:42;96370.00;;;24.35;49.65
62524;BME280;53689;56.878;60.672;2023-07-20T01:32:19;96371.03;;;24.23;49.15
62524;BME280;53689;56.878;60.672;2023-07-20T01:34:53;96374.78;;;24.71;48.82
62524;BME280;53689;56.878;60.672;2023-07-20T01:37:21;96363.34;;;24.53;48.51
62524;BME280;53689;56.878;60.672;2023-07-20T01:39:49;96373.06;;;24.49;48.56
62524;BME280;53689;56.878;60.672;2023-07-20T01:42:17;96376.25;;;24.41;48.69
62524;BME280;53689;56.878;60.672;2023-07-20T01:44:45;96380.38;;;24.53;48.46
62524;BME280;53689;56.878;60.672;2023-07-20T01:47:13;96372.16;;;24.81;48.46
62524;BME280;53689;56.878;60.672;2023-07-20T01:49:42;96366.41;;;24.72;48.16
62524;BME280;53689;56.878;60.672;2023-07-20T01:52:09;96369.84;;;24.57;48.74
62524;BME280;53689;56.878;60.672;2023-07-20T01:54:40;96373.06;;;24.49;48.99
62524;BME280;53689;56.878;60.672;2023-07-20T01:57:08;96372.41;;;24.79;48.37
62524;BME280;53689;56.878;60.672;2023-07-20T01:59:36;96372.50;;;24.47;48.98
62524;BME280;53689;56.878;60.672;2023-07-20T02:02:04;96381.97;;;24.44;49.24
62524;BME280;53689;56.878;60.672;2023-07-20T02:04:31;96375.47;;;24.45;48.54
62524;BME280;53689;56.878;60.672;2023-07-20T02:07:00;96374.34;;;24.89;48.14
62524;BME280;53689;56.878;60.672;2023-07-20T02:09:28;96383.72;;;24.71;47.54
62524;BME280;53689;56.878;60.672;2023-07-20T02:11:56;96384.47;;;24.56;47.86
62524;BME280;53689;56.878;60.672;2023-07-20T02:14:23;96391.22;;;24.53;48.63
62524;BME280;53689;56.878;60.672;2023-07-20T02:16:51;96386.50;;;24.82;47.96
62524;BME280;53689;56.878;60.672;2023-07-20T02:19:20;96390.31;;;24.91;47.98
62524;BME280;53689;56.878;60.672;2023-07-20T02:21:48;96384.25;;;24.73;48.10
62524;BME280;53689;56.878;60.672;2023-07-20T02:24:17;96386.69;;;24.70;48.38
62524;BME280;53689;56.878;60.672;2023-07-20T02:26:44;96386.66;;;25.23;47.23
62524;BME280;53689;56.878;60.672;2023-07-20T02:29:12;96390.63;;;25.05;48.21
62524;BME280;53689;56.878;60.672;2023-07-20T02:31:40;96388.56;;;24.64;47.80
62524;BME280;53689;56.878;60.672;2023-07-20T02:34:08;96383.13;;;24.64;47.93
62524;BME280;53689;56.878;60.672;2023-07-20T02:36:36;96396.59;;;25.07;48.21
62524;BME280;53689;56.878;60.672;2023-07-20T02:39:04;96388.50;;;25.17;47.81
62524;BME280;53689;56.878;60.672;2023-07-20T02:41:33;96388.22;;;25.08;47.56
62524;BME280;53689;56.878;60.672;2023-07-20T02:44:01;96392.38;;;24.73;48.53
62524;BME280;53689;56.878;60.672;2023-07-20T02:46:28;96396.66;;;24.64;48.53
62524;BME280;53689;56.878;60.672;2023-07-20T02:48:58;96394.63;;;24.82;47.92
62524;BME280;53689;56.878;60.672;2023-07-20T02:51:25;96400.69;;;25.15;47.67
62524;BME280;53689;56.878;60.672;2023-07-20T02:53:53;96396.13;;;25.31;47.44
62524;BME280;53689;56.878;60.672;2023-07-20T02:56:21;96395.81;;;25.22;47.71
62524;BME280;53689;56.878;60.672;2023-07-20T02:58:50;96395.81;;;25.17;47.78
62524;BME280;53689;56.878;60.672;2023-07-20T03:01:18;96398.78;;;25.15;47.15
62524;BME280;53689;56.878;60.672;2023-07-20T03:03:46;96398.81;;;25.20;47.27
62524;BME280;53689;56.878;60.672;2023-07-20T03:06:14;96406.97;;;25.31;46.74
62524;BME280;53689;56.878;60.672;2023-07-20T03:08:42;96399.13;;;25.45;46.66
62524;BME280;53689;56.878;60.672;2023-07-20T03:11:10;96401.25;;;25.32;47.29
62524;BME280;53689;56.878;60.672;2023-07-20T03:13:39;96406.97;;;25.31;47.75
62524;BME280;53689;56.878;60.672;2023-07-20T03:16:08;96409.13;;;25.34;46.68
62524;BME280;53689;56.878;60.672;2023-07-20T03:18:36;96411.84;;;25.34;47.24
62524;BME280;53689;56.878;60.672;2023-07-20T03:21:03;96421.69;;;25.61;46.83
62524;BME280;53689;56.878;60.672;2023-07-20T03:23:31;96422.50;;;25.72;46.78
62524;BME280;53689;56.878;60.672;2023-07-20T03:26:00;96422.97;;;25.48;47.17
62524;BME280;53689;56.878;60.672;2023-07-20T03:28:28;96424.13;;;25.68;46.87
62524;BME280;53689;56.878;60.672;2023-07-20T03:30:56;96417.63;;;25.74;46.30
62524;BME280;53689;56.878;60.672;2023-07-20T03:33:27;96423.88;;;25.85;46.70
62524;BME280;53689;56.878;60.672;2023-07-20T03:35:55;96430.38;;;25.89;46.49
62524;BME280;53689;56.878;60.672;2023-07-20T03:38:23;96432.25;;;25.73;46.21
62524;BME280;53689;56.878;60.672;2023-07-20T03:40:51;96423.31;;;25.77;46.75
62524;BME280;53689;56.878;60.672;2023-07-20T03:43:19;96430.09;;;25.75;46.80
62524;BME280;53689;56.878;60.672;2023-07-20T03:45:48;96428.75;;;25.88;46.37
62524;BME280;53689;56.878;60.672;2023-07-20T03:48:16;96432.00;;;25.85;46.12
62524;BME280;53689;56.878;60.672;2023-07-20T03:50:46;96431.72;;;25.76;46.43
62524;BME280;53689;56.878;60.672;2023-07-20T03:53:15;96431.72;;;25.86;46.83
62524;BME280;53689;56.878;60.672;2023-07-20T03:55:44;96430.63;;;25.87;45.90
62524;BME280;53689;56.878;60.672;2023-07-20T03:58:12;96436.34;;;25.75;46.89
62524;BME280;53689;56.878;60.672;2023-07-20T04:00:44;96435.50;;;25.65;46.64
62524;BME280;53689;56.878;60.672;2023-07-20T04:03:11;96435.53;;;25.90;46.19
62524;BME280;53689;56.878;60.672;2023-07-20T04:05:39;96445.28;;;25.92;46.16
62524;BME280;53689;56.878;60.672;2023-07-20T04:08:09;96436.59;;;25.84;46.95
62524;BME280;53689;56.878;60.672;2023-07-20T04:10:36;96441.19;;;25.63;46.37
62524;BME280;53689;56.878;60.672;2023-07-20T04:13:04;96433.91;;;25.89;46.36
62524;BME280;53689;56.878;60.672;2023-07-20T04:15:32;96435.81;;;26.25;45.20
62524;BME280;53689;56.878;60.672;2023-07-20T04:17:59;96430.91;;;26.07;46.19
62524;BME280;53689;56.878;60.672;2023-07-20T04:20:27;96425.50;;;25.86;46.37
62524;BME280;53689;56.878;60.672;2023-07-20T04:22:55;96427.09;;;26.13;45.77
62524;BME280;53689;56.878;60.672;2023-07-20T04:25:25;96429.03;;;25.92;46.47
62524;BME280;53689;56.878;60.672;2023-07-20T04:27:53;96424.41;;;25.87;46.69
62524;BME280;53689;56.878;60.672;2023-07-20T04:30:21;96429.31;;;25.95;46.78
62524;BME280;53689;56.878;60.672;2023-07-20T04:32:49;96432.00;;;26.21;46.06
62524;BME280;53689;56.878;60.672;2023-07-20T04:35:44;96434.97;;;25.99;46.69
62524;BME280;53689;56.878;60.672;2023-07-20T04:38:08;96438.25;;;26.01;46.08
62524;BME280;53689;56.878;60.672;2023-07-20T04:40:37;96434.97;;;25.99;46.57
62524;BME280;53689;56.878;60.672;2023-07-20T04:43:05;96428.19;;;26.01;46.30
62524;BME280;53689;56.878;60.672;2023-07-20T04:45:33;96434.44;;;26.07;46.72
62524;BME280;53689;56.878;60.672;2023-07-20T04:48:01;96440.69;;;25.97;46.73
62524;BME280;53689;56.878;60.672;2023-07-20T04:50:30;96433.91;;;26.10;46.40
62524;BME280;53689;56.878;60.672;2023-07-20T04:52:58;96431.19;;;26.26;45.87
62524;BME280;53689;56.878;60.672;2023-07-20T04:55:26;96436.59;;;26.15;46.20
62524;BME280;53689;56.878;60.672;2023-07-20T04:57:56;96432.78;;;25.70;47.87
62524;BME280;53689;56.878;60.672;2023-07-20T05:00:25;96437.94;;;26.13;46.66
62524;BME280;53689;56.878;60.672;2023-07-20T05:02:53;96433.88;;;25.74;47.76
62524;BME280;53689;56.878;60.672;2023-07-20T05:05:21;96446.91;;;26.13;46.74
62524;BME280;53689;56.878;60.672;2023-07-20T05:07:48;96440.72;;;25.02;49.11
62524;BME280;53689;56.878;60.672;2023-07-20T05:10:16;96439.84;;;24.43;50.67
62524;BME280;53689;56.878;60.672;2023-07-20T05:12:44;96446.44;;;24.63;51.16
62524;BME280;53689;56.878;60.672;2023-07-20T05:15:13;96442.94;;;24.19;52.54
62524;BME280;53689;56.878;60.672;2023-07-20T05:17:41;96442.69;;;24.69;50.66
62524;BME280;53689;56.878;60.672;2023-07-20T05:20:09;96446.56;;;24.78;50.51
62524;BME280;53689;56.878;60.672;2023-07-20T05:22:37;96439.03;;;24.86;51.19
62524;BME280;53689;56.878;60.672;2023-07-20T05:25:06;96444.91;;;24.77;51.49
62524;BME280;53689;56.878;60.672;2023-07-20T05:27:34;96445.69;;;24.73;51.46
62524;BME280;53689;56.878;60.672;2023-07-20T05:30:02;96448.66;;;24.71;51.57
62524;BME280;53689;56.878;60.672;2023-07-20T05:32:31;96443.00;;;24.73;51.14
62524;BME280;53689;56.878;60.672;2023-07-20T05:34:59;96444.34;;;24.75;51.69
62524;BME280;53689;56.878;60.672;2023-07-20T05:37:27;96453.03;;;24.77;51.08
62524;BME280;53689;56.878;60.672;2023-07-20T05:39:55;96448.13;;;24.69;51.26
62524;BME280;53689;56.878;60.672;2023-07-20T05:42:23;96456.31;;;24.79;50.71
62524;BME280;53689;56.878;60.672;2023-07-20T05:44:50;96445.00;;;24.88;51.40
62524;BME280;53689;56.878;60.672;2023-07-20T05:47:18;96449.63;;;24.92;51.41
62524;BME280;53689;56.878;60.672;2023-07-20T05:49:47;96443.03;;;24.78;51.55
62524;BME280;53689;56.878;60.672;2023-07-20T05:52:15;96446.06;;;24.87;50.89
62524;BME280;53689;56.878;60.672;2023-07-20T05:54:43;96446.44;;;25.11;50.34
62524;BME280;53689;56.878;60.672;2023-07-20T05:57:10;96443.41;;;25.02;50.55
62524;BME280;53689;56.878;60.672;2023-07-20T05:59:38;96450.44;;;24.98;51.34
62524;BME280;53689;56.878;60.672;2023-07-20T06:02:06;96443.78;;;24.73;51.79
62524;BME280;53689;56.878;60.672;2023-07-20T06:04:34;96454.03;;;24.66;51.96
62524;BME280;53689;56.878;60.672;2023-07-20T06:07:03;96453.53;;;24.69;51.77
62524;BME280;53689;56.878;60.672;2023-07-20T06:09:31;96444.63;;;24.74;51.97
62524;BME280;53689;56.878;60.672;2023-07-20T06:11:59;96446.88;;;24.06;53.06
62524;BME280;53689;56.878;60.672;2023-07-20T06:14:27;96445.00;;;24.45;51.55
62524;BME280;53689;56.878;60.672;2023-07-20T06:16:54;96445.31;;;24.53;52.24
62524;BME280;53689;56.878;60.672;2023-07-20T06:19:22;96452.16;;;24.66;50.36
62524;BME280;53689;56.878;60.672;2023-07-20T06:21:49;96446.78;;;24.72;50.69
62524;BME280;53689;56.878;60.672;2023-07-20T06:24:18;96438.44;;;24.78;50.58
62524;BME280;53689;56.878;60.672;2023-07-20T06:26:47;96443.53;;;24.75;50.98
62524;BME280;53689;56.878;60.672;2023-07-20T06:29:14;96443.56;;;24.37;51.46
62524;BME280;53689;56.878;60.672;2023-07-20T06:31:42;96444.41;;;24.37;51.36
62524;BME280;53689;56.878;60.672;2023-07-20T06:34:10;96439.28;;;24.41;51.77
62524;BME280;53689;56.878;60.672;2023-07-20T06:36:37;96439.84;;;24.43;51.56
62524;BME280;53689;56.878;60.672;2023-07-20T06:39:05;96437.47;;;24.52;51.88
62524;BME280;53689;56.878;60.672;2023-07-20T06:41:38;96441.34;;;24.23;52.90
62524;BME280;53689;56.878;60.672;2023-07-20T06:44:08;96447.75;;;23.57;53.32
62524;BME280;53689;56.878;60.672;2023-07-20T06:46:36;96437.56;;;24.24;52.19
62524;BME280;53689;56.878;60.672;2023-07-20T06:49:06;96440.53;;;23.90;52.58
62524;BME280;53689;56.878;60.672;2023-07-20T06:51:36;96447.34;;;23.70;52.75
62524;BME280;53689;56.878;60.672;2023-07-20T06:54:04;96445.22;;;23.45;52.62
62524;BME280;53689;56.878;60.672;2023-07-20T06:56:32;96453.28;;;24.33;51.95
62524;BME280;53689;56.878;60.672;2023-07-20T06:59:02;96455.63;;;24.57;50.31
62524;BME280;53689;56.878;60.672;2023-07-20T07:01:29;96446.06;;;24.44;50.85
62524;BME280;53689;56.878;60.672;2023-07-20T07:03:57;96448.53;;;24.13;50.86
62524;BME280;53689;56.878;60.672;2023-07-20T07:06:25;96452.16;;;24.23;51.15
62524;BME280;53689;56.878;60.672;2023-07-20T07:08:53;96441.41;;;24.34;49.96
62524;BME280;53689;56.878;60.672;2023-07-20T07:11:21;96448.06;;;24.21;50.30
62524;BME280;53689;56.878;60.672;2023-07-20T07:13:49;96448.06;;;24.21;50.67
62524;BME280;53689;56.878;60.672;2023-07-20T07:16:18;96447.66;;;23.74;52.59
62524;BME280;53689;56.878;60.672;2023-07-20T07:18:47;96441.28;;;23.86;52.08
62524;BME280;53689;56.878;60.672;2023-07-20T07:21:15;96437.00;;;23.90;52.63
62524;BME280;53689;56.878;60.672;2023-07-20T07:23:43;96426.91;;;24.56;49.91
62524;BME280;53689;56.878;60.672;2023-07-20T07:26:11;96434.25;;;24.55;50.07
62524;BME280;53689;56.878;60.672;2023-07-20T07:28:38;96435.16;;;24.76;50.19
62524;BME280;53689;56.878;60.672;2023-07-20T07:31:06;96428.09;;;24.70;50.22
62524;BME280;53689;56.878;60.672;2023-07-20T07:33:36;96434.34;;;24.76;49.60
62524;BME280;53689;56.878;60.672;2023-07-20T07:36:04;96446.75;;;24.23;50.81
62524;BME280;53689;56.878;60.672;2023-07-20T07:38:32;96444.28;;;24.60;49.82
62524;BME280;53689;56.878;60.672;2023-07-20T07:41:20;96441.25;;;24.13;50.96
62524;BME280;53689;56.878;60.672;2023-07-20T07:43:47;96441.66;;;24.32;50.96
62524;BME280;53689;56.878;60.672;2023-07-20T07:46:15;96450.78;;;24.21;50.73
62524;BME280;53689;56.878;60.672;2023-07-20T07:48:44;96446.88;;;24.44;49.72
62524;BME280;53689;56.878;60.672;2023-07-20T07:51:12;96447.75;;;24.17;50.83
62524;BME280;53689;56.878;60.672;2023-07-20T07:53:39;96447.34;;;24.31;49.63
62524;BME280;53689;56.878;60.672;2023-07-20T07:56:07;96450.91;;;24.79;48.71
62524;BME280;53689;56.878;60.672;2023-07-20T07:58:35;96451.22;;;24.45;49.70
62524;BME280;53689;56.878;60.672;2023-07-20T08:01:02;96458.00;;;24.48;49.77
62524;BME280;53689;56.878;60.672;2023-07-20T08:03:30;96461.78;;;24.47;49.43
62524;BME280;53689;56.878;60.672;2023-07-20T08:05:59;96462.03;;;24.88;48.26
62524;BME280;53689;56.878;60.672;2023-07-20T08:08:27;96456.66;;;24.50;49.02
62524;BME280;53689;56.878;60.672;2023-07-20T08:10:54;96461.59;;;24.64;49.00
62524;BME280;53689;56.878;60.672;2023-07-20T08:13:22;96461.66;;;24.69;48.28
62524;BME280;53689;56.878;60.672;2023-07-20T08:15:51;96460.88;;;24.36;49.10
62524;BME280;53689;56.878;60.672;2023-07-20T08:18:18;96456.91;;;24.49;49.42
62524;BME280;53689;56.878;60.672;2023-07-20T08:20:47;96458.81;;;24.48;48.60
62524;BME280;53689;56.878;60.672;2023-07-20T08:23:16;96455.44;;;24.74;48.72
62524;BME280;53689;56.878;60.672;2023-07-20T08:25:44;96455.53;;;24.84;48.41
62524;BME280;53689;56.878;60.672;2023-07-20T08:28:13;96458.69;;;24.76;48.57
62524;BME280;53689;56.878;60.672;2023-07-20T08:30:42;96454.69;;;24.84;48.39
62524;BME280;53689;56.878;60.672;2023-07-20T08:33:13;96465.69;;;24.66;48.15
62524;BME280;53689;56.878;60.672;2023-07-20T08:35:41;96470.59;;;24.32;48.94
62524;BME280;53689;56.878;60.672;2023-07-20T08:38:09;96452.41;;;24.22;49.05
62524;BME280;53689;56.878;60.672;2023-07-20T08:40:41;96462.06;;;24.50;48.57
62524;BME280;53689;56.878;60.672;2023-07-20T08:43:10;96465.25;;;24.42;49.15
62524;BME280;53689;56.878;60.672;2023-07-20T08:45:39;96469.03;;;24.41;48.29
62524;BME280;53689;56.878;60.672;2023-07-20T08:48:07;96476.38;;;24.46;48.91
62524;BME280;53689;56.878;60.672;2023-07-20T08:50:35;96471.19;;;24.39;48.34
62524;BME280;53689;56.878;60.672;2023-07-20T08:53:03;96469.34;;;24.50;48.63
62524;BME280;53689;56.878;60.672;2023-07-20T08:55:31;96459.38;;;24.56;48.74
62524;BME280;53689;56.878;60.672;2023-07-20T08:58:00;96458.50;;;24.83;47.19
62524;BME280;53689;56.878;60.672;2023-07-20T09:00:30;96457.44;;;24.89;47.20
62524;BME280;53689;56.878;60.672;2023-07-20T09:02:58;96455.28;;;24.86;47.05
62524;BME280;53689;56.878;60.672;2023-07-20T09:05:28;96460.41;;;24.82;46.56
62524;BME280;53689;56.878;60.672;2023-07-20T09:07:55;96458.31;;;25.05;47.06
62524;BME280;53689;56.878;60.672;2023-07-20T09:10:23;96455.09;;;25.13;46.21
62524;BME280;53689;56.878;60.672;2023-07-20T09:12:51;96459.44;;;25.09;46.16
62524;BME280;53689;56.878;60.672;2023-07-20T09:15:22;96453.75;;;25.11;46.82
62524;BME280;53689;56.878;60.672;2023-07-20T09:17:50;96454.81;;;25.10;47.16
62524;BME280;53689;56.878;60.672;2023-07-20T09:20:18;96459.19;;;25.21;46.63
62524;BME280;53689;56.878;60.672;2023-07-20T09:22:51;96459.69;;;25.07;45.97
62524;BME280;53689;56.878;60.672;2023-07-20T09:25:19;96455.97;;;25.24;46.61
62524;BME280;53689;56.878;60.672;2023-07-20T09:27:49;96458.41;;;25.26;46.92
62524;BME280;53689;56.878;60.672;2023-07-20T09:30:25;96458.66;;;25.19;46.34
62524;BME280;53689;56.878;60.672;2023-07-20T09:32:58;96457.59;;;25.25;46.41
62524;BME280;53689;56.878;60.672;2023-07-20T09:35:26;96455.16;;;24.70;46.97
62524;BME280;53689;56.878;60.672;2023-07-20T09:38:08;96450.66;;;24.81;47.44
62524;BME280;53689;56.878;60.672;2023-07-20T09:40:39;96453.41;;;24.91;46.94
62524;BME280;53689;56.878;60.672;2023-07-20T09:43:10;96455.28;;;24.86;45.79
62524;BME280;53689;56.878;60.672;2023-07-20T09:45:42;96458.50;;;24.83;46.58
62524;BME280;53689;56.878;60.672;2023-07-20T09:48:13;96453.53;;;24.69;47.09
62524;BME280;53689;56.878;60.672;2023-07-20T09:50:50;96446.09;;;24.92;46.62
62524;BME280;53689;56.878;60.672;2023-07-20T09:53:18;96433.50;;;24.70;46.70
62524;BME280;53689;56.878;60.672;2023-07-20T09:55:47;96440.00;;;24.74;46.67
62524;BME280;53689;56.878;60.672;2023-07-20T09:58:16;96426.38;;;24.53;47.00
62524;BME280;53689;56.878;60.672;2023-07-20T10:00:46;96427.50;;;24.58;46.85
62524;BME280;53689;56.878;60.672;2023-07-20T10:03:21;96424.56;;;24.64;46.16
62524;BME280;53689;56.878;60.672;2023-07-20T10:05:52;96418.06;;;24.65;46.52
62524;BME280;53689;56.878;60.672;2023-07-20T10:08:24;96409.41;;;24.69;46.27
62524;BME280;53689;56.878;60.672;2023-07-20T10:10:57;96405.31;;;24.61;45.31
62524;BME280;53689;56.878;60.672;2023-07-20T10:13:27;96416.63;;;24.47;45.02
62524;BME280;53689;56.878;60.672;2023-07-20T10:15:59;96418.66;;;24.30;47.02
62524;BME280;53689;56.878;60.672;2023-07-20T10:18:38;96423.03;;;24.36;46.16
62524;BME280;53689;56.878;60.672;2023-07-20T10:21:06;96427.06;;;24.76;45.99
62524;BME280;53689;56.878;60.672;2023-07-20T10:23:38;96436.41;;;24.53;45.19
62524;BME280;53689;56.878;60.672;2023-07-20T10:26:06;96451.84;;;24.20;46.58
62524;BME280;53689;56.878;60.672;2023-07-20T10:28:34;96488.78;;;23.81;47.47
62524;BME280;53689;56.878;60.672;2023-07-20T10:31:04;96496.38;;;23.12;51.39
62524;BME280;53689;56.878;60.672;2023-07-20T10:33:33;96514.34;;;24.23;47.28
62524;BME280;53689;56.878;60.672;2023-07-20T10:36:02;96532.56;;;24.33;47.75
62524;BME280;53689;56.878;60.672;2023-07-20T10:38:41;96538.59;;;24.13;48.46
62524;BME280;53689;56.878;60.672;2023-07-20T10:41:19;96530.19;;;23.87;49.48
62524;BME280;53689;56.878;60.672;2023-07-20T10:43:48;96539.63;;;23.84;50.71
62524;BME280;53689;56.878;60.672;2023-07-20T10:46:33;96544.22;;;23.84;51.00
62524;BME280;53689;56.878;60.672;2023-07-20T10:49:02;96533.63;;;23.77;51.15
62524;BME280;53689;56.878;60.672;2023-07-20T10:51:30;96539.25;;;23.76;52.16
62524;BME280;53689;56.878;60.672;2023-07-20T10:54:08;96538.59;;;23.63;52.54
62524;BME280;53689;56.878;60.672;2023-07-20T10:56:35;96539.09;;;23.60;53.19
62524;BME280;53689;56.878;60.672;2023-07-20T10:59:17;96543.19;;;23.63;53.41
62524;BME280;53689;56.878;60.672;2023-07-20T11:01:47;96554.28;;;23.66;53.75
62524;BME280;53689;56.878;60.672;2023-07-20T11:04:15;96552.03;;;23.58;53.65
62524;BME280;53689;56.878;60.672;2023-07-20T11:06:43;96543.72;;;23.65;54.39
62524;BME280;53689;56.878;60.672;2023-07-20T11:09:12;96548.66;;;23.68;54.41
62524;BME280;53689;56.878;60.672;2023-07-20T11:11:41;96553.66;;;23.59;54.07
62524;BME280;53689;56.878;60.672;2023-07-20T11:14:09;96547.34;;;23.48;54.50
62524;BME280;53689;56.878;60.672;2023-07-20T11:16:39;96550.06;;;23.48;53.37
62524;BME280;53689;56.878;60.672;2023-07-20T11:19:14;96546.00;;;23.51;54.21
62524;BME280;53689;56.878;60.672;2023-07-20T11:22:05;96548.09;;;23.44;54.19
62524;BME280;53689;56.878;60.672;2023-07-20T11:24:32;96544.66;;;23.48;53.56
62524;BME280;53689;56.878;60.672;2023-07-20T11:27:01;96535.59;;;23.60;53.64
62524;BME280;53689;56.878;60.672;2023-07-20T11:29:28;96539.47;;;23.69;54.06
62524;BME280;53689;56.878;60.672;2023-07-20T11:32:01;96530.22;;;23.65;53.09
62524;BME280;53689;56.878;60.672;2023-07-20T11:34:34;96533.97;;;23.86;52.48
62524;BME280;53689;56.878;60.672;2023-07-20T11:37:02;96530.28;;;23.70;53.63
62524;BME280;53689;56.878;60.672;2023-07-20T11:39:32;96530.41;;;23.80;52.84
62524;BME280;53689;56.878;60.672;2023-07-20T11:42:00;96526.63;;;23.81;53.20
62524;BME280;53689;56.878;60.672;2023-07-20T11:44:29;96528.56;;;23.86;53.33
62524;BME280;53689;56.878;60.672;2023-07-20T11:47:01;96527.25;;;23.89;53.25
62524;BME280;53689;56.878;60.672;2023-07-20T11:49:29;96521.59;;;23.90;53.57
62524;BME280;53689;56.878;60.672;2023-07-20T11:52:01;96524.88;;;23.97;53.06
62524;BME280;53689;56.878;60.672;2023-07-20T11:54:29;96516.34;;;24.06;52.56
62524;BME280;53689;56.878;60.672;2023-07-20T11:57:00;96516.59;;;24.04;51.42
62524;BME280;53689;56.878;60.672;2023-07-20T11:59:28;96512.16;;;24.20;51.37
62524;BME280;53689;56.878;60.672;2023-07-20T12:01:56;96518.97;;;24.28;50.67
62524;BME280;53689;56.878;60.672;2023-07-20T12:04:24;96515.63;;;24.48;49.74
62524;BME280;53689;56.878;60.672;2023-07-20T12:06:53;96515.31;;;24.45;49.56
62524;BME280;53689;56.878;60.672;2023-07-20T12:09:22;96510.00;;;24.22;49.27
62524;BME280;53689;56.878;60.672;2023-07-20T12:11:50;96502.22;;;24.31;49.30
62524;BME280;53689;56.878;60.672;2023-07-20T12:14:18;96490.38;;;24.37;49.83
62524;BME280;53689;56.878;60.672;2023-07-20T12:16:52;96493.63;;;24.39;49.71
62524;BME280;53689;56.878;60.672;2023-07-20T12:19:20;96496.31;;;24.34;49.59
62524;BME280;53689;56.878;60.672;2023-07-20T12:21:48;96492.75;;;24.29;49.04
62524;BME280;53689;56.878;60.672;2023-07-20T12:24:17;96503.28;;;24.25;49.75
62524;BME280;53689;56.878;60.672;2023-07-20T12:26:46;96506.78;;;24.25;49.18
62524;BME280;53689;56.878;60.672;2023-07-20T12:29:14;96500.00;;;24.23;49.29
62524;BME280;53689;56.878;60.672;2023-07-20T12:31:41;96502.22;;;24.31;49.12
62524;BME280;53689;56.878;60.672;2023-07-20T12:34:09;96504.94;;;24.31;48.52
62524;BME280;53689;56.878;60.672;2023-07-20T12:36:36;96502.53;;;24.35;48.05
62524;BME280;53689;56.878;60.672;2023-07-20T12:39:04;96502.34;;;24.47;48.02
62524;BME280;53689;56.878;60.672;2023-07-20T12:41:32;96499.19;;;24.60;47.98
62524;BME280;53689;56.878;60.672;2023-07-20T12:44:01;96502.66;;;24.50;47.37
62524;BME280;53689;56.878;60.672;2023-07-20T12:46:28;96495.56;;;24.44;46.91
62524;BME280;53689;56.878;60.672;2023-07-20T12:48:56;96494.06;;;24.64;46.48
62524;BME280;53689;56.878;60.672;2023-07-20T12:51:24;96496.94;;;24.47;46.52
62524;BME280;53689;56.878;60.672;2023-07-20T12:53:51;96499.94;;;24.50;45.90
62524;BME280;53689;56.878;60.672;2023-07-20T12:56:19;96504.81;;;24.53;46.01
62524;BME280;53689;56.878;60.672;2023-07-20T12:58:50;96504.81;;;24.53;46.03
62524;BME280;53689;56.878;60.672;2023-07-20T13:01:19;96506.38;;;24.44;46.30
62524;BME280;53689;56.878;60.672;2023-07-20T13:03:47;96505.88;;;24.47;44.96
62524;BME280;53689;56.878;60.672;2023-07-20T13:06:17;96503.75;;;24.55;45.83